createdAt,value
2019-01-23T00:01:04.842Z,52.80
2019-01-23T00:03:34.175Z,56.53
2019-01-23T00:06:03.546Z,55.73
2019-01-23T00:08:32.897Z,52.70
2019-01-23T00:11:02.155Z,57.57
2019-01-23T00:13:31.481Z,53.30
2019-01-23T00:16:00.815Z,51.87
2019-01-23T00:18:30.153Z,50.57
2019-01-23T00:20:59.467Z,52.13
2019-01-23T00:23:28.791Z,51.30
2019-01-23T00:25:58.048Z,48.20
2019-01-23T00:28:27.431Z,56.13
2019-01-23T00:30:56.749Z,47.23
2019-01-23T00:33:25.967Z,54.60
2019-01-23T00:35:55.298Z,56.43
2019-01-23T00:38:24.615Z,51.27
2019-01-23T00:40:53.923Z,47.90
2019-01-23T00:43:23.155Z,55.67
2019-01-23T00:45:55.180Z,55.87
2019-01-23T00:48:24.475Z,56.23
2019-01-23T00:50:53.830Z,56.63
2019-01-23T00:53:23.173Z,57.10
2019-01-23T00:55:52.515Z,57.50
2019-01-23T00:58:21.803Z,61.20
2019-01-23T01:00:51.178Z,53.13
2019-01-23T01:03:20.522Z,53.87
2019-01-23T01:05:50.120Z,54.03
2019-01-23T01:08:19.387Z,57.43
2019-01-23T01:10:48.683Z,49.57
2019-01-23T01:13:17.986Z,50.63
2019-01-23T01:15:47.843Z,50.47
2019-01-23T01:18:17.082Z,53.50
2019-01-23T01:20:47.564Z,55.93
2019-01-23T01:23:16.902Z,56.53
2019-01-23T01:25:46.125Z,54.43
2019-01-23T01:28:15.391Z,56.20
2019-01-23T01:30:44.650Z,52.83
2019-01-23T01:33:13.970Z,52.57
2019-01-23T11:38:34.821Z,42.43
2019-01-23T11:41:04.501Z,40.53
2019-01-23T11:43:34.027Z,39.67
2019-01-23T11:46:03.275Z,46.00
2019-01-23T11:48:32.626Z,44.87
2019-01-23T11:51:02.360Z,41.03
2019-01-23T11:53:31.987Z,43.77
2019-01-23T11:56:01.302Z,46.43
2019-01-23T11:58:30.533Z,50.13
2019-01-23T12:00:59.859Z,43.40
2019-01-23T12:03:29.136Z,41.57
2019-01-23T12:05:58.425Z,42.57
2019-01-23T12:08:27.714Z,43.80
2019-01-23T12:10:57.929Z,43.77
2019-01-23T12:13:27.629Z,50.47
2019-01-23T12:15:56.894Z,42.67
2019-01-23T12:18:26.030Z,45.13
2019-01-23T12:20:55.279Z,39.40
2019-01-23T12:23:24.730Z,44.93
2019-01-23T12:25:54.024Z,45.37
2019-01-23T12:28:23.331Z,45.23
2019-01-23T12:30:53.143Z,44.70
2019-01-23T12:33:22.537Z,42.40
2019-01-23T12:35:51.843Z,42.77
2019-01-23T12:38:21.347Z,39.77
2019-01-23T12:40:50.580Z,45.17
2019-01-23T12:43:22.651Z,44.70
2019-01-23T12:45:51.915Z,44.60
2019-01-23T12:48:21.171Z,38.80
2019-01-23T12:50:54.108Z,42.30
2019-01-23T12:53:23.411Z,42.97
2019-01-23T12:55:52.529Z,42.63
2019-01-23T12:58:21.771Z,46.83
2019-01-23T13:00:51.397Z,55.57
2019-01-23T13:03:20.600Z,43.47
2019-01-23T13:05:49.765Z,50.57
2019-01-23T13:08:19.016Z,47.73
2019-01-23T13:10:48.320Z,48.80
2019-01-23T13:13:19.195Z,48.00
2019-01-23T13:15:48.635Z,47.93
2019-01-23T13:18:17.921Z,46.37
2019-01-23T13:20:47.227Z,44.13
2019-01-23T13:23:19.824Z,41.50
2019-01-23T13:25:47.381Z,45.17
2019-01-23T13:28:16.540Z,50.03
2019-01-23T13:30:45.649Z,55.07
2019-01-23T13:33:14.993Z,43.90
2019-01-23T13:35:44.313Z,57.77
2019-01-23T13:38:16.106Z,55.43
2019-01-23T13:40:45.427Z,54.03
2019-01-23T13:43:15.044Z,51.80
2019-01-23T13:45:44.185Z,52.10
2019-01-23T13:48:13.537Z,56.70
2019-01-23T13:50:42.867Z,61.47
2019-01-23T13:53:12.248Z,50.50
2019-01-23T13:55:41.504Z,60.37
2019-01-23T13:58:10.827Z,58.47
2019-01-23T14:00:41.983Z,60.20
2019-01-23T14:03:11.646Z,63.43
2019-01-23T14:05:41.031Z,56.57
2019-01-23T14:08:10.600Z,58.93
2019-01-23T14:10:39.802Z,63.30
2019-01-23T14:13:10.026Z,65.30
2019-01-23T14:15:40.138Z,70.17
2019-01-23T14:18:10.159Z,72.37
2019-01-23T14:20:39.502Z,74.47
2019-01-23T14:23:08.842Z,70.67
2019-01-23T14:25:38.052Z,69.07
2019-01-23T14:28:07.204Z,71.70
2019-01-23T14:30:38.898Z,76.07
2019-01-23T14:33:08.166Z,77.13
2019-01-23T14:35:39.173Z,73.27
2019-01-23T14:38:08.324Z,78.87
2019-01-23T14:40:37.482Z,83.63
2019-01-23T14:43:07.399Z,79.40
2019-01-23T14:45:36.614Z,77.63
2019-01-23T14:48:06.250Z,78.70
2019-01-23T14:50:35.442Z,91.33
2019-01-23T14:53:05.205Z,81.83
2019-01-23T14:55:34.404Z,90.77
2019-01-23T14:58:22.776Z,76.83
2019-01-23T15:00:52.052Z,84.40
2019-01-23T15:03:21.410Z,76.80
2019-01-23T15:05:50.636Z,77.57
2019-01-23T15:08:19.919Z,84.20
2019-01-23T15:10:49.268Z,80.93
2019-01-23T15:13:18.789Z,80.70
2019-01-23T15:15:48.057Z,80.67
2019-01-23T15:18:17.450Z,79.57
2019-01-23T15:20:46.780Z,81.97
2019-01-23T15:23:16.116Z,85.87
2019-01-23T15:25:45.530Z,76.87
2019-01-23T15:28:14.987Z,75.77
2019-01-23T15:30:44.356Z,87.97
2019-01-23T15:33:13.579Z,88.87
2019-01-23T15:35:42.861Z,79.73
2019-01-23T15:38:12.128Z,86.67
2019-01-23T15:40:42.148Z,71.90
2019-01-23T15:43:11.405Z,81.90
2019-01-23T15:45:40.628Z,87.57
2019-01-23T15:48:09.884Z,83.53
2019-01-23T15:50:39.062Z,88.73
2019-01-23T15:53:08.395Z,88.60
2019-01-23T15:55:37.800Z,80.00
2019-01-23T15:58:07.005Z,86.07
2019-01-23T16:00:47.552Z,86.50
2019-01-23T16:03:16.957Z,92.53
2019-01-23T16:05:46.872Z,85.47
2019-01-23T16:08:16.120Z,84.13
2019-01-23T16:10:45.383Z,77.73
2019-01-23T16:13:14.718Z,83.53
2019-01-23T16:15:44.096Z,87.20
2019-01-23T16:18:13.314Z,81.43
2019-01-23T16:20:42.613Z,83.77
2019-01-23T16:23:12.142Z,96.43
2019-01-23T16:25:41.410Z,96.60
2019-01-23T16:28:12.759Z,90.10
2019-01-23T16:30:41.750Z,84.83
2019-01-23T16:33:11.149Z,76.50
2019-01-23T16:35:43.477Z,91.57
2019-01-23T16:38:15.548Z,87.00
2019-01-23T16:40:47.458Z,83.90
2019-01-23T16:43:18.985Z,86.30
2019-01-23T16:45:50.978Z,87.00
2019-01-23T16:48:22.887Z,89.53
2019-01-23T16:50:56.857Z,88.07
2019-01-23T16:53:30.535Z,85.63
2019-01-23T16:56:00.025Z,94.10
2019-01-23T16:58:29.279Z,86.83
2019-01-23T17:01:04.389Z,92.57
2019-01-23T17:03:35.436Z,103.20
2019-01-23T17:06:07.926Z,93.13
2019-01-23T17:08:37.157Z,101.50
2019-01-23T17:11:09.598Z,90.80
2019-01-23T17:13:40.921Z,90.00
2019-01-23T17:16:30.640Z,86.50
2019-01-23T17:19:48.581Z,91.20
2019-01-23T17:23:06.815Z,85.77
2019-01-23T17:26:08.594Z,97.50
2019-01-23T17:29:19.177Z,89.50
2019-01-23T17:31:55.431Z,95.60
2019-01-23T17:34:26.534Z,83.63
2019-01-23T17:36:55.809Z,81.10
2019-01-23T17:39:25.018Z,95.10
2019-01-23T17:41:57.295Z,101.90
2019-01-23T17:44:26.534Z,99.00
2019-01-23T17:47:03.054Z,94.90
2019-01-23T17:49:32.367Z,94.50
2019-01-23T17:52:09.302Z,97.10
2019-01-23T17:54:38.682Z,90.40
2019-01-23T17:57:13.487Z,96.80
2019-01-23T17:59:42.728Z,82.27
2019-01-23T18:02:14.850Z,82.90
2019-01-23T18:04:44.131Z,91.47
2019-01-23T18:07:13.552Z,86.43
2019-01-23T18:10:03.527Z,83.07
2019-01-23T18:12:32.868Z,76.77
2019-01-23T18:15:05.784Z,81.10
2019-01-23T18:17:35.123Z,81.93
2019-01-23T18:20:10.758Z,88.27
2019-01-23T18:22:41.333Z,78.17
2019-01-23T18:25:13.057Z,72.87
2019-01-23T18:28:13.014Z,76.73
2019-01-23T18:30:21.880Z,80.97
2019-01-23T18:32:59.953Z,85.90
2019-01-23T18:36:03.242Z,86.17
2019-01-23T18:42:21.020Z,71.50
2019-01-23T18:45:30.539Z,79.47
2019-01-23T18:48:27.092Z,92.67
2019-01-23T18:51:12.797Z,86.23
2019-01-23T18:53:42.084Z,78.77
2019-01-23T18:56:11.408Z,63.20
2019-01-23T18:58:40.673Z,82.10
2019-01-23T19:01:09.910Z,83.43
2019-01-23T19:03:39.137Z,83.83
2019-01-23T19:06:08.464Z,89.80
2019-01-23T19:08:37.753Z,83.10
2019-01-23T19:11:07.570Z,84.57
2019-01-23T19:13:36.894Z,92.37
2019-01-23T19:16:07.738Z,78.07
2019-01-23T19:18:36.948Z,93.47
2019-01-23T19:21:06.868Z,87.77
2019-01-23T19:23:36.088Z,77.27
2019-01-23T19:26:05.630Z,87.40
2019-01-23T19:28:34.926Z,78.33
2019-01-23T19:31:04.689Z,85.47
2019-01-23T19:33:34.041Z,81.30
2019-01-23T19:36:03.390Z,89.67
2019-01-23T19:38:32.662Z,77.03
2019-01-23T19:41:01.804Z,89.77
2019-01-23T19:43:31.166Z,89.97
2019-01-23T19:46:00.467Z,97.57
2019-01-23T19:48:29.712Z,100.90
2019-01-23T19:50:59.003Z,93.00
2019-01-23T19:53:28.351Z,91.17
2019-01-23T19:55:57.646Z,84.77
2019-01-23T19:58:27.355Z,96.57
2019-01-23T20:00:56.661Z,86.27
2019-01-23T20:03:25.972Z,86.03
2019-01-23T20:05:55.269Z,95.83
2019-01-23T20:08:24.469Z,94.23
2019-01-23T20:10:53.707Z,105.27
2019-01-23T20:13:23.029Z,95.23
2019-01-23T20:15:52.313Z,86.97
2019-01-23T20:18:21.623Z,95.13
2019-01-23T20:20:50.885Z,100.03
2019-01-23T20:23:20.340Z,98.33
2019-01-23T20:25:49.610Z,92.17
2019-01-23T20:28:18.801Z,99.17
2019-01-23T20:30:47.982Z,92.20
2019-01-23T20:33:17.159Z,94.77
2019-01-23T20:35:46.338Z,91.33
2019-01-23T20:38:15.603Z,104.17
2019-01-23T20:40:44.847Z,110.03
2019-01-23T20:43:14.126Z,97.43
2019-01-23T20:45:43.335Z,92.23
2019-01-23T20:48:12.668Z,96.67
2019-01-23T20:50:41.916Z,104.23
2019-01-23T20:53:11.032Z,101.07
2019-01-23T20:55:41.075Z,262.37
2019-01-23T20:58:10.837Z,117.33
2019-01-23T21:00:40.335Z,86.93
2019-01-23T21:03:09.605Z,105.27
2019-01-23T21:05:38.805Z,99.53
2019-01-23T21:08:08.026Z,101.07
2019-01-23T21:10:37.326Z,100.57
2019-01-23T21:13:06.565Z,109.83
2019-01-23T21:15:36.453Z,105.03
2019-01-23T21:18:06.326Z,108.47
2019-01-23T21:20:37.954Z,101.67
2019-01-23T21:23:07.999Z,107.00
2019-01-23T21:25:37.306Z,108.23
2019-01-23T21:28:06.565Z,107.97
2019-01-23T21:30:36.039Z,117.40
2019-01-23T21:33:05.787Z,118.40
2019-01-23T21:35:35.049Z,104.93
2019-01-23T21:38:04.875Z,106.23
2019-01-23T21:40:34.552Z,107.57
2019-01-23T21:43:04.496Z,128.50
2019-01-23T21:45:35.969Z,105.10
2019-01-23T21:48:05.341Z,121.07
2019-01-23T21:50:34.526Z,102.57
2019-01-23T21:53:04.128Z,113.13
2019-01-23T21:55:33.397Z,112.67
2019-01-23T21:58:02.601Z,129.30
2019-01-23T22:00:37.629Z,110.17
2019-01-23T22:03:07.789Z,119.20
2019-01-23T22:05:37.202Z,117.57
2019-01-23T22:08:06.986Z,112.10
2019-01-23T22:10:36.243Z,135.53
2019-01-23T22:13:05.923Z,140.80
2019-01-23T22:15:35.526Z,113.40
2019-01-23T22:18:05.778Z,125.50
2019-01-23T22:20:35.041Z,115.20
2019-01-23T22:23:04.332Z,118.33
2019-01-23T22:25:33.641Z,113.37
2019-01-23T22:28:02.842Z,121.33
2019-01-23T22:30:33.486Z,118.73
2019-01-23T22:33:02.823Z,120.57
2019-01-23T22:35:31.941Z,139.87
2019-01-23T22:38:01.157Z,124.60
2019-01-23T22:40:30.371Z,115.33
2019-01-23T22:42:59.603Z,136.73
2019-01-23T22:45:28.812Z,123.03
2019-01-23T22:47:58.042Z,139.13
2019-01-23T22:50:28.588Z,137.30
2019-01-23T22:52:57.808Z,125.60
2019-01-23T22:55:27.345Z,298.30
2019-01-23T22:57:56.597Z,129.97
2019-01-23T23:00:36.253Z,98.47
2019-01-23T23:03:06.157Z,111.10
2019-01-23T23:05:35.364Z,120.43
2019-01-23T23:08:05.299Z,118.33
2019-01-23T23:10:34.568Z,103.03
2019-01-23T23:13:03.839Z,118.70
2019-01-23T23:15:33.129Z,112.63
2019-01-23T23:18:02.405Z,105.30
2019-01-23T23:20:31.634Z,100.47
2019-01-23T23:23:00.806Z,100.60
2019-01-23T23:25:30.092Z,110.00
2019-01-23T23:27:59.337Z,113.10
2019-01-23T23:30:28.570Z,110.33
2019-01-23T23:32:57.713Z,87.43
2019-01-23T23:35:26.922Z,102.93
2019-01-23T23:37:56.594Z,100.77
2019-01-23T23:40:25.833Z,94.07
2019-01-23T23:42:55.055Z,104.27
2019-01-23T23:45:24.306Z,82.47
2019-01-23T23:47:53.473Z,88.63
2019-01-23T23:50:22.697Z,88.13
2019-01-23T23:52:51.982Z,86.43
2019-01-23T23:55:21.110Z,94.47
2019-01-23T23:57:50.341Z,77.63
